Relevés horaires Schaffen (Belgique)


Relevés horaires à Schaffen - Lundi 21 Août 2017
Heure UTC1 Température [°C] Vent [km/h] Hum. [%] Pres.4 [hPa] Visi. [Km] Nébu. [octa] Préc.5 [mm] Cond.
2m. Res. Ros. Dir.2 Vit. Moy. Raf.3
23:00 17.2 17.2 13.3 NNO 1.9 -- 1.9 78 1022.2(-0.3/3h) 20 -- -- --
22:00 17.2 17.2 13.0 NNO 1.9 -- 1.9 76 1022.5(0.0/3h) 20 -- -- --
21:00 17.7 17.7 13.0 NNO 1.9 -- 1.9 74 1022.5(0.2/3h) 20 -- -- --
20:00 18.2 18.2 13.0 NNO 1.9 -- 1.9 72 1022.5(0.0/3h) 20 -- -- --
19:00 18.7 18.7 12.6 NNO 1.9 -- 1.9 68 1022.3(-0.3/3h) 10 -- -- --
18:00 19.0 19.0 12.8 NNO 1.9 -- 11.1 67 1022.2(-0.6/3h) 20 -- -- --
17:00 19.5 19.5 11.9 NNO 1.9 -- 5.6 61 1022.3(-0.4/3h) 20 -- -- --
16:00 19.7 19.7 11.4 NNO 1.9 -- 5.6 59 1022.7(-0.7/3h) 20 -- -- --
15:00 19.9 19.9 12.2 NNO 1.9 -- 11.1 61 1022.7(-0.8/3h) 20 5/8 -- --
14:00 20.7 20.7 11.9 S 3.7 -- 7.4 57 1022.8(-1.0/3h) 20 5/8 -- --
13:00 19.2 19.2 11.6 S 3.7 -- 11.1 61 1023.5(-0.9/3h) 20 5/8 -- --
12:00 20.3 20.3 11.3 S 5.6 -- 11.1 56 1023.7(-1.0/3h) 20 5/8 -- --
11:00 19.3 19.3 11.8 S 5.6 -- 9.3 62 1024(-0.6/3h) 20 2/8 -- --
10:00 18.6 18.6 11.9 NNO 1.9 -- 7.4 65 1024.5(0.0/3h) 20 2/8 -- --
09:00 18.0 18.0 11.0 SSO 3.7 -- 7.4 64 1024.7(0.5/3h) 20 2/8 -- --
08:00 16.7 16.7 11.3 OSO 3.7 -- 5.6 70 1024.7(0.7/3h) 20 2/8 -- --
07:00 15.0 15.0 12.1 NNO 1.9 -- 3.7 83 1024.5(0.5/3h) 20 2/8 -- --
06:00 12.2 12.2 11.6 NNO 1.9 -- 3.7 96 1024.2(0.0/3h) 15 3/8 -- Une mince couche de brouillard ou de brouillard glacé en bancs est observé à la station. L'épaisseur du brouillard ne doit pas réduire la visibilité au niveau de l'oeil; le brouillard doit cependant avoir une densité telle que la visibilité apparente dans le brouillard soit inférieure à 5/8 de mille
05:00 12.1 12.1 10.8 NNO 1.9 -- 3.7 92 1024(-0.1/3h) 15 5/8 -- Une mince couche de brouillard ou de brouillard glacé en bancs est observé à la station. L'épaisseur du brouillard ne doit pas réduire la visibilité au niveau de l'oeil; le brouillard doit cependant avoir une densité telle que la visibilité apparente dans le brouillard soit inférieure à 5/8 de mille
04:00 12.3 12.3 11.1 NNO 1.9 -- 1.9 92 1024(-0.3/3h) 15 7/8 -- --
03:00 12.8 12.8 10.6 NNO 1.9 -- 3.7 86 1024.2(-0.3/3h) 20 -- -- --
02:00 13.0 13.0 11.2 NNO 1.9 -- 3.7 89 1024.2(-0.5/3h) 20 -- -- --
01:00 14.1 14.1 10.2 NNO 1.9 -- 3.7 77 1024.4(-0.4/3h) 20 -- -- --
00:00 13.6 13.6 10.4 NNO 1.9 -- 5.6 81 1024.5(-0.4/3h) 20 -- -- --

1 Coordinated Universal Time. Actuellement il est 04:00 locale et 03:00 UTC.

2 Le vent souffle depuis la direction indiquée vers la direction oposée.

3 Les rafales max. sont disponible 40 min après l'heure du relevé.

4 Pour les stations d'altitude (plus de 600m) le géopotentiel du niveau le plus proche de la pression obligatoire est indiqué.

5 Les stations disposant d'un diffuseur peuvent indiquer "trace". Cela signifie que des précipitations ont touchés le sol mais que la quantité est inférieure à 0.1 mm.

Récapitulatif de la journée
Température [°C] Vent [km/h] Ensoleillement4 [h] Precipitations totale5 [mm] Pression [Hpa]
Min1 Max.2 Moy.3 Max. Min Max.
11.3 21.2 0 11.1 0 h 0 min 0 1022.2 1024.7

1 Température minimale relevée entre 18:00 UTC la veille et 18:00 UTC le jour donné.

2 Température maximale relevée entre 06:00 UTC le jour donné et 06:00 UTC le lendemain.

3 Vent moyen de la journée basé sur les relevés horaires.

4 Ensoleillement en heures relevé entre 06:00 UTC la veille et 06:00 UTC le jour donné.

5 Précipitations totales tombées entre 06:00 UTC la jour donné et 06:00 UTC le lendemain.

Graphiques horaires